sensor_id;sensor_type;location;lat;lon;timestamp;pressure;altitude;pressure_sealevel;temperature;humidity
75656;BME280;64252;51.094;13.714;2024-01-15T00:00:42;98507.31;;;9.17;46.16
75656;BME280;64252;51.094;13.714;2024-01-15T00:03:08;98507.69;;;10.12;43.57
75656;BME280;64252;51.094;13.714;2024-01-15T00:05:35;98506.56;;;10.29;42.91
75656;BME280;64252;51.094;13.714;2024-01-15T00:08:02;98498.75;;;10.56;42.82
75656;BME280;64252;51.094;13.714;2024-01-15T00:10:27;98490.63;;;9.53;44.41
75656;BME280;64252;51.094;13.714;2024-01-15T00:12:53;98490.41;;;9.87;43.84
75656;BME280;64252;51.094;13.714;2024-01-15T00:15:19;98483.03;;;9.50;44.29
75656;BME280;64252;51.094;13.714;2024-01-15T00:17:44;98486.16;;;8.78;45.67
75656;BME280;64252;51.094;13.714;2024-01-15T00:20:10;98480.38;;;9.62;44.91
75656;BME280;64252;51.094;13.714;2024-01-15T00:22:39;98483.81;;;9.74;44.19
75656;BME280;64252;51.094;13.714;2024-01-15T00:25:05;98484.00;;;9.40;44.67
75656;BME280;64252;51.094;13.714;2024-01-15T00:27:31;98483.50;;;9.91;44.37
75656;BME280;64252;51.094;13.714;2024-01-15T00:29:57;98485.59;;;10.30;42.88
75656;BME280;64252;51.094;13.714;2024-01-15T00:32:24;98475.03;;;9.91;44.21
75656;BME280;64252;51.094;13.714;2024-01-15T00:34:50;98472.63;;;9.90;44.42
75656;BME280;64252;51.094;13.714;2024-01-15T00:37:16;98487.88;;;9.49;44.89
75656;BME280;64252;51.094;13.714;2024-01-15T00:39:41;98480.69;;;9.45;45.51
75656;BME280;64252;51.094;13.714;2024-01-15T00:42:07;98480.81;;;9.38;45.22
75656;BME280;64252;51.094;13.714;2024-01-15T00:44:33;98468.22;;;9.89;44.80
75656;BME280;64252;51.094;13.714;2024-01-15T00:46:59;98465.06;;;8.63;46.45
75656;BME280;64252;51.094;13.714;2024-01-15T00:49:24;98462.81;;;9.05;45.52
75656;BME280;64252;51.094;13.714;2024-01-15T00:51:50;98453.66;;;9.01;45.51
75656;BME280;64252;51.094;13.714;2024-01-15T00:54:15;98455.53;;;9.34;45.02
75656;BME280;64252;51.094;13.714;2024-01-15T00:56:41;98460.25;;;9.14;45.26
75656;BME280;64252;51.094;13.714;2024-01-15T00:59:07;98447.63;;;9.25;44.76
75656;BME280;64252;51.094;13.714;2024-01-15T01:01:36;98449.19;;;9.73;44.73
75656;BME280;64252;51.094;13.714;2024-01-15T01:04:03;98446.44;;;9.23;45.24
75656;BME280;64252;51.094;13.714;2024-01-15T01:06:29;98444.44;;;9.47;44.57
75656;BME280;64252;51.094;13.714;2024-01-15T01:08:54;98438.50;;;8.04;46.54
75656;BME280;64252;51.094;13.714;2024-01-15T01:11:20;98456.59;;;8.63;45.97
75656;BME280;64252;51.094;13.714;2024-01-15T01:13:46;98439.84;;;8.83;45.67
75656;BME280;64252;51.094;13.714;2024-01-15T01:16:11;98433.41;;;9.33;44.92
75656;BME280;64252;51.094;13.714;2024-01-15T01:18:37;98422.78;;;8.40;46.56
75656;BME280;64252;51.094;13.714;2024-01-15T01:21:03;98417.03;;;9.01;45.75
75656;BME280;64252;51.094;13.714;2024-01-15T01:23:29;98424.28;;;9.02;45.85
75656;BME280;64252;51.094;13.714;2024-01-15T01:25:54;98422.81;;;9.17;45.54
75656;BME280;64252;51.094;13.714;2024-01-15T01:28:20;98424.66;;;9.27;44.73
75656;BME280;64252;51.094;13.714;2024-01-15T01:30:46;98423.59;;;8.94;46.10
75656;BME280;64252;51.094;13.714;2024-01-15T01:33:11;98419.38;;;9.29;44.74
75656;BME280;64252;51.094;13.714;2024-01-15T01:35:37;98408.97;;;9.03;45.61
75656;BME280;64252;51.094;13.714;2024-01-15T01:38:03;98413.94;;;9.42;44.20
75656;BME280;64252;51.094;13.714;2024-01-15T01:40:28;98412.16;;;9.51;44.49
75656;BME280;64252;51.094;13.714;2024-01-15T01:42:54;98402.72;;;9.38;44.41
75656;BME280;64252;51.094;13.714;2024-01-15T01:45:23;98411.66;;;9.10;45.03
75656;BME280;64252;51.094;13.714;2024-01-15T01:47:48;98413.13;;;8.41;45.70
75656;BME280;64252;51.094;13.714;2024-01-15T01:50:14;98409.56;;;8.91;45.65
75656;BME280;64252;51.094;13.714;2024-01-15T01:52:40;98410.84;;;9.36;45.10
75656;BME280;64252;51.094;13.714;2024-01-15T01:55:07;98408.38;;;9.38;44.50
75656;BME280;64252;51.094;13.714;2024-01-15T01:57:34;98404.53;;;8.78;45.81
75656;BME280;64252;51.094;13.714;2024-01-15T02:00:02;98401.25;;;8.84;45.41
75656;BME280;64252;51.094;13.714;2024-01-15T02:02:36;98399.69;;;8.52;46.08
75656;BME280;64252;51.094;13.714;2024-01-15T02:05:04;98398.91;;;8.78;45.99
75656;BME280;64252;51.094;13.714;2024-01-15T02:07:34;98402.75;;;8.65;45.42
75656;BME280;64252;51.094;13.714;2024-01-15T02:10:00;98389.34;;;9.22;44.50
75656;BME280;64252;51.094;13.714;2024-01-15T02:12:25;98388.78;;;8.85;45.25
75656;BME280;64252;51.094;13.714;2024-01-15T02:14:53;98402.06;;;8.80;45.34
75656;BME280;64252;51.094;13.714;2024-01-15T02:17:19;98388.63;;;8.08;46.20
75656;BME280;64252;51.094;13.714;2024-01-15T02:19:45;98390.25;;;8.93;45.14
75656;BME280;64252;51.094;13.714;2024-01-15T02:22:10;98383.63;;;8.79;45.86
75656;BME280;64252;51.094;13.714;2024-01-15T02:24:36;98385.38;;;8.43;45.83
75656;BME280;64252;51.094;13.714;2024-01-15T02:27:02;98381.97;;;8.25;46.38
75656;BME280;64252;51.094;13.714;2024-01-15T02:29:27;98381.66;;;8.50;45.80
75656;BME280;64252;51.094;13.714;2024-01-15T02:31:53;98388.88;;;8.77;45.25
75656;BME280;64252;51.094;13.714;2024-01-15T02:34:18;98387.66;;;8.21;46.06
75656;BME280;64252;51.094;13.714;2024-01-15T02:36:44;98384.75;;;8.59;46.67
75656;BME280;64252;51.094;13.714;2024-01-15T02:39:10;98375.78;;;8.91;45.43
75656;BME280;64252;51.094;13.714;2024-01-15T02:41:35;98364.75;;;8.76;45.36
75656;BME280;64252;51.094;13.714;2024-01-15T02:44:01;98368.22;;;8.88;45.81
75656;BME280;64252;51.094;13.714;2024-01-15T02:46:26;98368.41;;;8.50;45.85
75656;BME280;64252;51.094;13.714;2024-01-15T02:48:52;98368.88;;;8.95;44.67
75656;BME280;64252;51.094;13.714;2024-01-15T02:51:18;98370.16;;;8.91;45.00
75656;BME280;64252;51.094;13.714;2024-01-15T02:53:43;98368.72;;;8.56;45.81
75656;BME280;64252;51.094;13.714;2024-01-15T02:56:09;98362.44;;;8.95;45.10
75656;BME280;64252;51.094;13.714;2024-01-15T02:58:34;98354.69;;;8.79;45.36
75656;BME280;64252;51.094;13.714;2024-01-15T03:01:00;98367.66;;;8.96;44.78
75656;BME280;64252;51.094;13.714;2024-01-15T03:03:26;98359.03;;;9.07;44.41
75656;BME280;64252;51.094;13.714;2024-01-15T03:05:51;98360.53;;;8.08;46.04
75656;BME280;64252;51.094;13.714;2024-01-15T03:08:17;98362.09;;;9.16;44.51
75656;BME280;64252;51.094;13.714;2024-01-15T03:10:42;98341.09;;;8.74;45.33
75656;BME280;64252;51.094;13.714;2024-01-15T03:13:12;98352.50;;;8.06;71.65
75656;BME280;64252;51.094;13.714;2024-01-15T03:15:37;98356.81;;;8.95;49.85
75656;BME280;64252;51.094;13.714;2024-01-15T03:18:03;98352.66;;;8.56;47.54
75656;BME280;64252;51.094;13.714;2024-01-15T03:20:29;98359.78;;;9.11;45.32
75656;BME280;64252;51.094;13.714;2024-01-15T03:22:54;98369.69;;;8.96;45.55
75656;BME280;64252;51.094;13.714;2024-01-15T03:25:20;98351.06;;;8.78;45.58
75656;BME280;64252;51.094;13.714;2024-01-15T03:27:46;98364.16;;;8.65;45.53
75656;BME280;64252;51.094;13.714;2024-01-15T03:30:12;98351.44;;;9.27;44.32
75656;BME280;64252;51.094;13.714;2024-01-15T03:32:38;98367.66;;;9.19;44.44
75656;BME280;64252;51.094;13.714;2024-01-15T03:35:03;98365.69;;;8.43;45.38
75656;BME280;64252;51.094;13.714;2024-01-15T03:37:29;98370.50;;;8.69;45.10
75656;BME280;64252;51.094;13.714;2024-01-15T03:39:55;98375.31;;;9.19;44.54
75656;BME280;64252;51.094;13.714;2024-01-15T03:42:20;98377.44;;;8.38;45.46
75656;BME280;64252;51.094;13.714;2024-01-15T03:44:46;98379.78;;;8.93;44.70
75656;BME280;64252;51.094;13.714;2024-01-15T03:47:11;98391.66;;;9.70;43.24
75656;BME280;64252;51.094;13.714;2024-01-15T03:49:37;98378.47;;;8.74;44.86
75656;BME280;64252;51.094;13.714;2024-01-15T03:52:03;98377.78;;;8.94;44.86
75656;BME280;64252;51.094;13.714;2024-01-15T03:54:29;98372.41;;;8.76;45.35
75656;BME280;64252;51.094;13.714;2024-01-15T03:56:54;98374.28;;;8.59;45.40
75656;BME280;64252;51.094;13.714;2024-01-15T03:59:20;98369.25;;;8.74;45.67
75656;BME280;64252;51.094;13.714;2024-01-15T04:01:49;98378.22;;;8.65;45.82
75656;BME280;64252;51.094;13.714;2024-01-15T04:04:16;98382.06;;;8.48;45.87
75656;BME280;64252;51.094;13.714;2024-01-15T04:06:42;98373.31;;;8.69;45.48
75656;BME280;64252;51.094;13.714;2024-01-15T04:09:08;98377.78;;;8.40;46.41
75656;BME280;64252;51.094;13.714;2024-01-15T04:11:33;98384.47;;;8.76;45.90
75656;BME280;64252;51.094;13.714;2024-01-15T04:13:59;98373.84;;;8.88;45.07
75656;BME280;64252;51.094;13.714;2024-01-15T04:16:24;98372.75;;;8.55;46.51
75656;BME280;64252;51.094;13.714;2024-01-15T04:18:50;98365.66;;;8.97;44.80
75656;BME280;64252;51.094;13.714;2024-01-15T04:21:17;98373.97;;;9.27;44.21
75656;BME280;64252;51.094;13.714;2024-01-15T04:23:43;98364.56;;;8.64;45.82
75656;BME280;64252;51.094;13.714;2024-01-15T04:26:12;98372.34;;;8.26;45.99
75656;BME280;64252;51.094;13.714;2024-01-15T04:28:38;98362.88;;;7.45;47.21
75656;BME280;64252;51.094;13.714;2024-01-15T04:31:03;98348.81;;;8.43;45.72
75656;BME280;64252;51.094;13.714;2024-01-15T04:33:29;98360.34;;;8.22;45.99
75656;BME280;64252;51.094;13.714;2024-01-15T04:35:55;98355.75;;;8.35;45.89
75656;BME280;64252;51.094;13.714;2024-01-15T04:38:20;98353.97;;;8.18;46.19
75656;BME280;64252;51.094;13.714;2024-01-15T04:40:46;98349.38;;;8.01;46.02
75656;BME280;64252;51.094;13.714;2024-01-15T04:43:11;98351.31;;;7.77;46.51
75656;BME280;64252;51.094;13.714;2024-01-15T04:45:37;98351.88;;;8.52;45.08
75656;BME280;64252;51.094;13.714;2024-01-15T04:48:06;98349.97;;;8.15;45.69
75656;BME280;64252;51.094;13.714;2024-01-15T04:50:35;98351.25;;;8.11;45.91
75656;BME280;64252;51.094;13.714;2024-01-15T04:53:00;98340.81;;;7.47;47.30
75656;BME280;64252;51.094;13.714;2024-01-15T04:55:29;98350.91;;;7.41;47.29
75656;BME280;64252;51.094;13.714;2024-01-15T04:57:55;98346.47;;;7.77;46.39
75656;BME280;64252;51.094;13.714;2024-01-15T05:00:20;98348.06;;;7.44;46.95
75656;BME280;64252;51.094;13.714;2024-01-15T05:02:46;98334.91;;;7.38;47.17
75656;BME280;64252;51.094;13.714;2024-01-15T05:05:12;98358.47;;;7.06;47.63
75656;BME280;64252;51.094;13.714;2024-01-15T05:07:38;98348.56;;;7.70;46.74
75656;BME280;64252;51.094;13.714;2024-01-15T05:10:04;98358.69;;;7.26;46.86
75656;BME280;64252;51.094;13.714;2024-01-15T05:12:31;98358.53;;;6.99;47.18
75656;BME280;64252;51.094;13.714;2024-01-15T05:14:57;98363.03;;;7.68;46.00
75656;BME280;64252;51.094;13.714;2024-01-15T05:17:22;98367.66;;;7.85;45.48
75656;BME280;64252;51.094;13.714;2024-01-15T05:19:48;98369.63;;;7.88;45.61
75656;BME280;64252;51.094;13.714;2024-01-15T05:22:14;98362.66;;;7.66;46.20
75656;BME280;64252;51.094;13.714;2024-01-15T05:24:39;98377.47;;;7.33;46.99
75656;BME280;64252;51.094;13.714;2024-01-15T05:27:05;98380.28;;;7.70;45.83
75656;BME280;64252;51.094;13.714;2024-01-15T05:29:30;98372.13;;;7.79;46.34
75656;BME280;64252;51.094;13.714;2024-01-15T05:31:56;98373.72;;;7.80;46.21
75656;BME280;64252;51.094;13.714;2024-01-15T05:34:22;98360.78;;;7.90;45.76
75656;BME280;64252;51.094;13.714;2024-01-15T05:36:47;98372.69;;;8.58;43.97
75656;BME280;64252;51.094;13.714;2024-01-15T05:39:13;98372.72;;;7.26;46.37
75656;BME280;64252;51.094;13.714;2024-01-15T05:41:39;98371.78;;;8.08;45.13
75656;BME280;64252;51.094;13.714;2024-01-15T05:44:04;98363.19;;;7.17;46.91
75656;BME280;64252;51.094;13.714;2024-01-15T05:46:30;98379.72;;;7.48;45.92
75656;BME280;64252;51.094;13.714;2024-01-15T05:48:56;98379.75;;;7.04;46.27
75656;BME280;64252;51.094;13.714;2024-01-15T05:51:22;98383.28;;;7.86;45.17
75656;BME280;64252;51.094;13.714;2024-01-15T05:53:48;98372.53;;;7.44;45.07
75656;BME280;64252;51.094;13.714;2024-01-15T05:56:13;98382.34;;;7.97;45.21
75656;BME280;64252;51.094;13.714;2024-01-15T05:58:39;98377.50;;;8.31;43.98
75656;BME280;64252;51.094;13.714;2024-01-15T06:01:05;98376.75;;;7.63;45.26
75656;BME280;64252;51.094;13.714;2024-01-15T06:03:30;98373.59;;;8.21;44.44
75656;BME280;64252;51.094;13.714;2024-01-15T06:05:56;98381.69;;;8.16;44.77
75656;BME280;64252;51.094;13.714;2024-01-15T06:08:22;98372.88;;;7.83;44.46
75656;BME280;64252;51.094;13.714;2024-01-15T06:10:47;98379.38;;;7.43;45.68
75656;BME280;64252;51.094;13.714;2024-01-15T06:13:13;98360.94;;;7.76;44.70
75656;BME280;64252;51.094;13.714;2024-01-15T06:15:39;98356.88;;;8.11;44.15
75656;BME280;64252;51.094;13.714;2024-01-15T06:18:05;98361.13;;;8.22;43.87
75656;BME280;64252;51.094;13.714;2024-01-15T06:20:30;98357.72;;;8.65;43.22
75656;BME280;64252;51.094;13.714;2024-01-15T06:22:56;98345.47;;;7.91;44.52
75656;BME280;64252;51.094;13.714;2024-01-15T06:25:22;98347.50;;;8.21;43.50
75656;BME280;64252;51.094;13.714;2024-01-15T06:27:47;98349.56;;;8.17;43.60
75656;BME280;64252;51.094;13.714;2024-01-15T06:30:13;98357.81;;;8.31;43.14
75656;BME280;64252;51.094;13.714;2024-01-15T06:32:39;98351.91;;;8.22;43.29
75656;BME280;64252;51.094;13.714;2024-01-15T06:35:05;98342.59;;;8.55;42.68
75656;BME280;64252;51.094;13.714;2024-01-15T06:37:31;98344.97;;;8.30;43.29
75656;BME280;64252;51.094;13.714;2024-01-15T06:39:58;98346.75;;;7.86;44.26
75656;BME280;64252;51.094;13.714;2024-01-15T06:42:24;98347.81;;;8.00;43.91
75656;BME280;64252;51.094;13.714;2024-01-15T06:44:50;98343.19;;;7.82;44.33
75656;BME280;64252;51.094;13.714;2024-01-15T06:47:15;98339.66;;;8.09;43.49
75656;BME280;64252;51.094;13.714;2024-01-15T06:49:43;98353.53;;;8.19;43.54
75656;BME280;64252;51.094;13.714;2024-01-15T06:52:08;98341.72;;;8.05;43.56
75656;BME280;64252;51.094;13.714;2024-01-15T06:54:34;98361.66;;;8.14;43.96
75656;BME280;64252;51.094;13.714;2024-01-15T06:56:59;98354.75;;;7.54;44.58
75656;BME280;64252;51.094;13.714;2024-01-15T06:59:25;98345.53;;;8.18;43.82
75656;BME280;64252;51.094;13.714;2024-01-15T07:01:51;98351.31;;;7.73;44.17
75656;BME280;64252;51.094;13.714;2024-01-15T07:04:16;98355.19;;;7.86;43.76
75656;BME280;64252;51.094;13.714;2024-01-15T07:06:42;98355.94;;;7.90;44.21
75656;BME280;64252;51.094;13.714;2024-01-15T07:09:08;98353.81;;;7.68;44.63
75656;BME280;64252;51.094;13.714;2024-01-15T07:11:34;98356.31;;;8.76;42.13
75656;BME280;64252;51.094;13.714;2024-01-15T07:14:00;98356.53;;;8.05;43.34
75656;BME280;64252;51.094;13.714;2024-01-15T07:16:26;98360.91;;;7.79;44.55
75656;BME280;64252;51.094;13.714;2024-01-15T07:18:51;98376.72;;;8.00;43.68
75656;BME280;64252;51.094;13.714;2024-01-15T07:21:17;98378.34;;;8.28;43.01
75656;BME280;64252;51.094;13.714;2024-01-15T07:23:42;98370.91;;;8.11;43.92
75656;BME280;64252;51.094;13.714;2024-01-15T07:26:08;98390.88;;;8.20;43.43
75656;BME280;64252;51.094;13.714;2024-01-15T07:28:34;98387.91;;;8.04;43.29
75656;BME280;64252;51.094;13.714;2024-01-15T07:31:00;98398.22;;;8.14;43.76
75656;BME280;64252;51.094;13.714;2024-01-15T07:33:27;98398.47;;;7.92;44.07
75656;BME280;64252;51.094;13.714;2024-01-15T07:35:52;98398.03;;;8.28;43.25
75656;BME280;64252;51.094;13.714;2024-01-15T07:38:18;98401.56;;;8.02;43.85
75656;BME280;64252;51.094;13.714;2024-01-15T07:40:44;98386.28;;;8.03;44.51
75656;BME280;64252;51.094;13.714;2024-01-15T07:43:09;98395.59;;;8.30;43.34
75656;BME280;64252;51.094;13.714;2024-01-15T07:45:35;98397.75;;;7.85;44.59
75656;BME280;64252;51.094;13.714;2024-01-15T07:48:01;98392.34;;;7.67;44.33
75656;BME280;64252;51.094;13.714;2024-01-15T07:50:26;98385.41;;;7.41;44.95
75656;BME280;64252;51.094;13.714;2024-01-15T07:52:52;98387.38;;;7.78;44.38
75656;BME280;64252;51.094;13.714;2024-01-15T07:55:18;98378.59;;;7.01;45.23
75656;BME280;64252;51.094;13.714;2024-01-15T07:57:44;98382.69;;;7.68;44.62
75656;BME280;64252;51.094;13.714;2024-01-15T08:00:10;98383.78;;;7.78;44.25
75656;BME280;64252;51.094;13.714;2024-01-15T08:02:36;98388.56;;;7.47;45.07
75656;BME280;64252;51.094;13.714;2024-01-15T08:05:01;98386.34;;;7.65;43.86
75656;BME280;64252;51.094;13.714;2024-01-15T08:07:28;98382.44;;;7.89;43.65
75656;BME280;64252;51.094;13.714;2024-01-15T08:09:54;98388.03;;;7.93;43.26
75656;BME280;64252;51.094;13.714;2024-01-15T08:12:19;98388.81;;;7.93;43.39
75656;BME280;64252;51.094;13.714;2024-01-15T08:14:45;98397.03;;;7.77;43.95
75656;BME280;64252;51.094;13.714;2024-01-15T08:17:11;98384.38;;;7.25;45.22
75656;BME280;64252;51.094;13.714;2024-01-15T08:19:37;98399.41;;;8.13;43.31
75656;BME280;64252;51.094;13.714;2024-01-15T08:22:02;98405.00;;;7.48;44.95
75656;BME280;64252;51.094;13.714;2024-01-15T08:24:28;98393.31;;;7.50;44.29
75656;BME280;64252;51.094;13.714;2024-01-15T08:26:54;98399.97;;;7.26;44.81
75656;BME280;64252;51.094;13.714;2024-01-15T08:29:21;98408.09;;;7.20;44.70
75656;BME280;64252;51.094;13.714;2024-01-15T08:31:47;98390.97;;;7.45;44.13
75656;BME280;64252;51.094;13.714;2024-01-15T08:34:13;98400.28;;;7.72;43.65
75656;BME280;64252;51.094;13.714;2024-01-15T08:36:40;98399.28;;;8.23;42.66
75656;BME280;64252;51.094;13.714;2024-01-15T08:39:06;98406.00;;;7.28;44.41
75656;BME280;64252;51.094;13.714;2024-01-15T08:41:33;98399.00;;;7.46;44.12
75656;BME280;64252;51.094;13.714;2024-01-15T08:43:58;98399.53;;;7.72;44.14
75656;BME280;64252;51.094;13.714;2024-01-15T08:46:24;98396.00;;;7.98;43.13
75656;BME280;64252;51.094;13.714;2024-01-15T08:48:50;98397.13;;;7.70;43.76
75656;BME280;64252;51.094;13.714;2024-01-15T08:51:15;98395.19;;;7.98;43.19
75656;BME280;64252;51.094;13.714;2024-01-15T08:53:41;98392.94;;;7.85;43.59
75656;BME280;64252;51.094;13.714;2024-01-15T08:56:06;98404.84;;;7.63;43.61
75656;BME280;64252;51.094;13.714;2024-01-15T08:58:35;98399.63;;;7.61;43.54
75656;BME280;64252;51.094;13.714;2024-01-15T09:01:00;98396.50;;;8.20;42.82
75656;BME280;64252;51.094;13.714;2024-01-15T09:03:26;98400.28;;;7.76;42.78
75656;BME280;64252;51.094;13.714;2024-01-15T09:05:52;98407.50;;;7.77;43.73
75656;BME280;64252;51.094;13.714;2024-01-15T09:08:18;98392.38;;;8.31;42.75
75656;BME280;64252;51.094;13.714;2024-01-15T09:10:44;98391.56;;;8.31;42.57
75656;BME280;64252;51.094;13.714;2024-01-15T09:13:11;98404.97;;;7.86;43.45
75656;BME280;64252;51.094;13.714;2024-01-15T09:15:36;98409.53;;;8.07;42.81
75656;BME280;64252;51.094;13.714;2024-01-15T09:18:02;98389.88;;;8.37;42.48
75656;BME280;64252;51.094;13.714;2024-01-15T09:20:28;98390.72;;;8.88;41.31
75656;BME280;64252;51.094;13.714;2024-01-15T09:22:53;98390.94;;;8.73;41.17
75656;BME280;64252;51.094;13.714;2024-01-15T09:25:19;98403.34;;;9.03;40.42
75656;BME280;64252;51.094;13.714;2024-01-15T09:27:45;98405.44;;;8.45;41.95
75656;BME280;64252;51.094;13.714;2024-01-15T09:30:11;98401.13;;;8.91;40.96
75656;BME280;64252;51.094;13.714;2024-01-15T09:32:37;98402.41;;;8.32;41.82
75656;BME280;64252;51.094;13.714;2024-01-15T09:35:02;98397.31;;;8.77;41.12
75656;BME280;64252;51.094;13.714;2024-01-15T09:37:28;98403.22;;;9.33;40.25
75656;BME280;64252;51.094;13.714;2024-01-15T09:39:54;98394.91;;;8.76;40.77
75656;BME280;64252;51.094;13.714;2024-01-15T09:42:22;98408.50;;;9.31;40.15
75656;BME280;64252;51.094;13.714;2024-01-15T09:44:49;98402.94;;;8.77;40.63
75656;BME280;64252;51.094;13.714;2024-01-15T09:47:15;98396.88;;;8.52;41.03
75656;BME280;64252;51.094;13.714;2024-01-15T09:49:41;98401.44;;;9.19;40.54
75656;BME280;64252;51.094;13.714;2024-01-15T09:52:07;98401.41;;;8.73;40.92
75656;BME280;64252;51.094;13.714;2024-01-15T09:54:34;98401.19;;;8.87;40.89
75656;BME280;64252;51.094;13.714;2024-01-15T09:57:00;98402.72;;;9.38;39.77
75656;BME280;64252;51.094;13.714;2024-01-15T09:59:26;98386.53;;;8.99;40.63
75656;BME280;64252;51.094;13.714;2024-01-15T10:01:54;98380.22;;;8.65;40.84
75656;BME280;64252;51.094;13.714;2024-01-15T10:04:21;98393.66;;;8.54;40.84
75656;BME280;64252;51.094;13.714;2024-01-15T10:06:47;98401.66;;;9.95;38.87
75656;BME280;64252;51.094;13.714;2024-01-15T10:09:15;98395.25;;;9.51;39.26
75656;BME280;64252;51.094;13.714;2024-01-15T10:11:42;98389.19;;;9.53;39.14
75656;BME280;64252;51.094;13.714;2024-01-15T10:14:12;98390.31;;;9.79;38.85
75656;BME280;64252;51.094;13.714;2024-01-15T10:16:39;98385.63;;;9.92;38.51
75656;BME280;64252;51.094;13.714;2024-01-15T10:19:04;98379.84;;;9.36;39.76
75656;BME280;64252;51.094;13.714;2024-01-15T10:21:34;98374.47;;;9.22;39.77
75656;BME280;64252;51.094;13.714;2024-01-15T10:24:03;98381.03;;;9.58;38.84
75656;BME280;64252;51.094;13.714;2024-01-15T10:26:30;98371.50;;;10.31;37.97
75656;BME280;64252;51.094;13.714;2024-01-15T10:28:57;98367.97;;;9.02;40.11
75656;BME280;64252;51.094;13.714;2024-01-15T10:31:23;98373.47;;;9.09;39.64
75656;BME280;64252;51.094;13.714;2024-01-15T10:33:49;98371.94;;;9.90;38.96
75656;BME280;64252;51.094;13.714;2024-01-15T10:36:16;98365.16;;;9.68;38.30
75656;BME280;64252;51.094;13.714;2024-01-15T10:38:46;98368.25;;;9.74;39.04
75656;BME280;64252;51.094;13.714;2024-01-15T10:41:12;98369.81;;;9.35;39.43
75656;BME280;64252;51.094;13.714;2024-01-15T10:43:38;98373.22;;;9.66;39.27
75656;BME280;64252;51.094;13.714;2024-01-15T10:46:07;98371.50;;;9.29;40.18
75656;BME280;64252;51.094;13.714;2024-01-15T10:48:33;98370.75;;;9.48;39.53
75656;BME280;64252;51.094;13.714;2024-01-15T10:51:01;98369.63;;;9.65;39.00
75656;BME280;64252;51.094;13.714;2024-01-15T10:53:38;98386.63;;;9.82;38.63
75656;BME280;64252;51.094;13.714;2024-01-15T10:56:05;98363.75;;;9.56;39.31
75656;BME280;64252;51.094;13.714;2024-01-15T10:58:34;98375.28;;;10.25;37.67
75656;BME280;64252;51.094;13.714;2024-01-15T11:01:01;98371.94;;;10.10;38.18
75656;BME280;64252;51.094;13.714;2024-01-15T11:03:27;98376.66;;;9.77;38.98
75656;BME280;64252;51.094;13.714;2024-01-15T11:05:53;98378.47;;;9.44;39.15
75656;BME280;64252;51.094;13.714;2024-01-15T11:08:20;98379.59;;;9.70;39.03
75656;BME280;64252;51.094;13.714;2024-01-15T11:10:48;98372.44;;;9.22;39.13
75656;BME280;64252;51.094;13.714;2024-01-15T11:16:02;98372.44;;;9.65;39.08
75656;BME280;64252;51.094;13.714;2024-01-15T11:18:35;98376.41;;;9.25;39.65
75656;BME280;64252;51.094;13.714;2024-01-15T11:24:00;98377.78;;;10.39;38.09
75656;BME280;64252;51.094;13.714;2024-01-15T11:26:36;98373.47;;;9.95;38.89
75656;BME280;64252;51.094;13.714;2024-01-15T11:34:15;98365.22;;;9.21;40.31
75656;BME280;64252;51.094;13.714;2024-01-15T11:41:55;98338.19;;;9.87;38.82
75656;BME280;64252;51.094;13.714;2024-01-15T11:44:21;98345.06;;;10.41;38.31
75656;BME280;64252;51.094;13.714;2024-01-15T11:47:03;98354.00;;;10.40;38.20
75656;BME280;64252;51.094;13.714;2024-01-15T11:49:39;98343.66;;;10.33;37.82
75656;BME280;64252;51.094;13.714;2024-01-15T11:52:16;98343.38;;;10.08;38.73
75656;BME280;64252;51.094;13.714;2024-01-15T11:54:50;98339.13;;;10.00;38.70
75656;BME280;64252;51.094;13.714;2024-01-15T11:57:21;98348.53;;;9.93;38.33
75656;BME280;64252;51.094;13.714;2024-01-15T11:59:51;98348.03;;;10.54;38.27
75656;BME280;64252;51.094;13.714;2024-01-15T12:02:17;98341.66;;;9.75;38.68
75656;BME280;64252;51.094;13.714;2024-01-15T12:04:42;98349.69;;;9.76;38.67
75656;BME280;64252;51.094;13.714;2024-01-15T12:07:08;98344.75;;;10.00;38.07
75656;BME280;64252;51.094;13.714;2024-01-15T12:09:33;98334.00;;;9.75;38.65
75656;BME280;64252;51.094;13.714;2024-01-15T12:12:06;98334.75;;;9.79;39.14
75656;BME280;64252;51.094;13.714;2024-01-15T12:14:33;98340.88;;;9.11;40.51
75656;BME280;64252;51.094;13.714;2024-01-15T12:17:00;98344.13;;;9.73;39.49
75656;BME280;64252;51.094;13.714;2024-01-15T12:19:26;98351.47;;;9.66;40.16
75656;BME280;64252;51.094;13.714;2024-01-15T12:21:51;98340.53;;;9.29;40.88
75656;BME280;64252;51.094;13.714;2024-01-15T12:24:17;98341.81;;;10.07;39.55
75656;BME280;64252;51.094;13.714;2024-01-15T12:26:44;98345.25;;;9.95;39.91
75656;BME280;64252;51.094;13.714;2024-01-15T12:29:11;98335.88;;;9.82;40.13
75656;BME280;64252;51.094;13.714;2024-01-15T12:31:37;98338.31;;;10.55;38.99
75656;BME280;64252;51.094;13.714;2024-01-15T12:34:02;98336.06;;;9.51;40.33
75656;BME280;64252;51.094;13.714;2024-01-15T12:36:31;98337.31;;;9.70;39.64
75656;BME280;64252;51.094;13.714;2024-01-15T12:39:00;98333.72;;;9.50;40.42
75656;BME280;64252;51.094;13.714;2024-01-15T12:41:26;98347.19;;;9.39;40.93
75656;BME280;64252;51.094;13.714;2024-01-15T12:43:52;98339.72;;;9.91;40.71
75656;BME280;64252;51.094;13.714;2024-01-15T12:46:17;98333.59;;;10.12;40.10
75656;BME280;64252;51.094;13.714;2024-01-15T12:48:44;98345.91;;;10.22;40.46
75656;BME280;64252;51.094;13.714;2024-01-15T12:51:10;98327.66;;;10.27;39.52
75656;BME280;64252;51.094;13.714;2024-01-15T12:53:36;98331.69;;;9.90;40.03
75656;BME280;64252;51.094;13.714;2024-01-15T12:56:01;98327.63;;;10.30;39.91
75656;BME280;64252;51.094;13.714;2024-01-15T12:58:27;98343.50;;;9.42;41.45
75656;BME280;64252;51.094;13.714;2024-01-15T13:00:53;98335.38;;;9.24;41.99
75656;BME280;64252;51.094;13.714;2024-01-15T13:03:19;98341.63;;;9.35;42.62
75656;BME280;64252;51.094;13.714;2024-01-15T13:05:45;98325.84;;;9.41;42.21
75656;BME280;64252;51.094;13.714;2024-01-15T13:08:11;98328.69;;;9.38;42.64
75656;BME280;64252;51.094;13.714;2024-01-15T13:10:37;98327.47;;;10.18;40.82